createdAt,value
2019-03-18T00:01:38.981Z,14.50
2019-03-18T00:04:10.361Z,15.80
2019-03-18T00:06:40.992Z,15.77
2019-03-18T00:09:11.514Z,19.03
2019-03-18T00:11:41.939Z,15.80
2019-03-18T00:14:12.619Z,14.13
2019-03-18T00:16:42.950Z,20.00
2019-03-18T00:19:13.496Z,17.87
2019-03-18T00:21:44.171Z,32.00
2019-03-18T00:24:14.516Z,20.77
2019-03-18T00:26:44.804Z,23.93
2019-03-18T00:29:15.204Z,38.00
2019-03-18T00:31:45.531Z,29.43
2019-03-18T00:34:15.950Z,21.37
2019-03-18T00:36:46.240Z,24.13
2019-03-18T00:39:16.569Z,24.37
2019-03-18T00:41:46.974Z,23.97
2019-03-18T00:44:17.475Z,16.77
2019-03-18T00:46:47.884Z,19.50
2019-03-18T00:49:18.603Z,23.63
2019-03-18T00:51:49.147Z,21.97
2019-03-18T00:54:19.488Z,15.77
2019-03-18T00:56:49.978Z,13.47
2019-03-18T00:59:20.951Z,13.47
2019-03-18T01:01:51.310Z,20.03
2019-03-18T01:04:21.660Z,13.50
2019-03-18T01:06:51.946Z,15.47
2019-03-18T01:09:22.885Z,26.60
2019-03-18T01:11:53.408Z,16.33
2019-03-18T01:14:23.839Z,15.17
2019-03-18T01:16:54.490Z,20.67
2019-03-18T01:19:25.306Z,25.97
2019-03-18T01:21:55.675Z,21.07
2019-03-18T01:24:26.397Z,26.07
2019-03-18T01:26:56.974Z,26.13
2019-03-18T01:29:27.257Z,19.23
2019-03-18T01:31:57.743Z,21.60
2019-03-18T01:34:28.305Z,23.90
2019-03-18T01:36:58.583Z,18.17
2019-03-18T01:39:28.860Z,26.47
2019-03-18T01:41:59.893Z,22.53
2019-03-18T01:44:30.187Z,24.73
2019-03-18T01:47:00.485Z,19.37
2019-03-18T01:49:30.874Z,20.30
2019-03-18T01:52:01.342Z,22.20
2019-03-18T01:54:31.675Z,19.00
2019-03-18T01:57:02.299Z,20.30
2019-03-18T01:59:32.988Z,21.23
2019-03-18T02:02:04.397Z,24.47
2019-03-18T02:04:35.079Z,20.57
2019-03-18T02:07:05.532Z,22.53
2019-03-18T02:09:35.903Z,20.03
2019-03-18T02:12:06.459Z,26.97
2019-03-18T02:14:36.742Z,32.00
2019-03-18T02:17:07.455Z,19.87
2019-03-18T02:19:38.147Z,18.87
2019-03-18T02:22:08.504Z,20.67
2019-03-18T02:24:39.114Z,34.60
2019-03-18T02:27:09.639Z,31.97
2019-03-18T02:29:39.965Z,25.73
2019-03-18T02:32:10.501Z,28.73
2019-03-18T02:34:41.221Z,27.73
2019-03-18T02:37:11.497Z,33.30
2019-03-18T02:39:42.011Z,32.57
2019-03-18T02:42:12.632Z,21.00
2019-03-18T02:44:43.164Z,23.17
2019-03-18T02:47:13.820Z,26.57
2019-03-18T02:49:44.105Z,25.60
2019-03-18T02:52:14.675Z,20.70
2019-03-18T02:54:45.364Z,15.30
2019-03-18T02:57:15.696Z,20.30
2019-03-18T02:59:46.076Z,16.77
2019-03-18T03:02:16.885Z,18.10
2019-03-18T03:04:47.168Z,11.77
2019-03-18T03:07:17.592Z,14.43
2019-03-18T03:09:48.227Z,14.97
2019-03-18T03:12:18.730Z,18.23
2019-03-18T03:14:49.479Z,23.30
2019-03-18T03:17:21.903Z,18.43
2019-03-18T03:19:52.017Z,21.17
2019-03-18T03:22:22.578Z,14.57
2019-03-18T03:24:52.876Z,17.20
2019-03-18T03:27:23.196Z,17.63
2019-03-18T03:29:53.602Z,17.57
2019-03-18T03:32:24.317Z,17.20
2019-03-18T03:34:54.586Z,16.70
2019-03-18T03:37:25.142Z,17.37
2019-03-18T03:39:55.503Z,17.80
2019-03-18T03:42:25.802Z,17.30
2019-03-18T03:44:56.543Z,14.63
2019-03-18T03:47:27.326Z,24.17
2019-03-18T03:49:57.605Z,18.87
2019-03-18T03:52:28.212Z,19.60
2019-03-18T03:54:58.982Z,22.67
2019-03-18T03:57:29.307Z,29.87
2019-03-18T03:59:59.730Z,21.10
2019-03-18T04:02:30.750Z,23.30
2019-03-18T04:05:01.052Z,20.77
2019-03-18T04:07:31.375Z,21.07
2019-03-18T04:10:02.006Z,20.33
2019-03-18T04:12:32.675Z,15.43
2019-03-18T04:15:03.352Z,16.50
2019-03-18T04:17:35.000Z,17.90
2019-03-18T04:20:05.587Z,23.17
2019-03-18T04:22:36.300Z,24.73
2019-03-18T04:25:06.868Z,26.53
2019-03-18T04:27:37.243Z,20.07
2019-03-18T04:30:08.540Z,19.70
2019-03-18T04:32:39.195Z,23.07
2019-03-18T04:35:09.600Z,25.27
2019-03-18T04:37:40.540Z,24.20
2019-03-18T04:40:11.811Z,26.23
2019-03-18T04:42:42.191Z,25.97
2019-03-18T04:45:12.781Z,29.93
2019-03-18T04:47:43.120Z,30.80
2019-03-18T04:50:14.149Z,34.03
2019-03-18T04:52:45.410Z,36.90
2019-03-18T04:55:15.777Z,28.20
2019-03-18T04:57:46.499Z,26.17
2019-03-18T05:00:17.032Z,29.50
2019-03-18T05:02:47.365Z,29.60
2019-03-18T05:05:18.156Z,36.63
2019-03-18T05:07:48.801Z,25.63
2019-03-18T05:10:19.083Z,25.33
2019-03-18T05:12:49.660Z,41.93
2019-03-18T05:15:20.267Z,37.73
2019-03-18T05:17:50.613Z,58.73
2019-03-18T05:20:21.068Z,46.90
2019-03-18T05:22:51.619Z,48.07
2019-03-18T05:25:22.279Z,53.20
2019-03-18T05:27:52.852Z,39.93
2019-03-18T05:30:23.131Z,46.83
2019-03-18T05:32:53.815Z,62.33
2019-03-18T05:35:24.506Z,52.57
2019-03-18T05:37:54.872Z,49.27
2019-03-18T05:40:25.217Z,56.73
2019-03-18T05:42:55.812Z,47.23
2019-03-18T05:45:26.159Z,45.03
2019-03-18T05:47:56.728Z,53.80
2019-03-18T05:50:27.257Z,46.67
2019-03-18T05:52:57.833Z,56.20
2019-03-18T05:55:28.563Z,49.80
2019-03-18T05:57:59.003Z,59.73
2019-03-18T06:00:29.517Z,62.00
2019-03-18T06:03:00.226Z,60.27
2019-03-18T06:05:30.672Z,59.80
2019-03-18T06:08:01.213Z,62.37
2019-03-18T06:10:31.831Z,64.77
2019-03-18T06:13:02.160Z,60.10
2019-03-18T06:15:32.442Z,60.40
2019-03-18T06:18:02.898Z,76.50
2019-03-18T06:20:33.392Z,68.07
2019-03-18T06:23:04.170Z,70.20
2019-03-18T06:25:34.536Z,49.63
2019-03-18T06:28:04.867Z,49.27
2019-03-18T06:30:35.511Z,49.63
2019-03-18T06:33:05.857Z,43.37
2019-03-18T06:35:36.203Z,36.10
2019-03-18T06:38:07.151Z,34.43
2019-03-18T06:40:37.645Z,29.00
2019-03-18T06:43:08.019Z,30.10
2019-03-18T06:45:38.632Z,30.73
2019-03-18T06:48:09.316Z,35.50
2019-03-18T06:50:39.607Z,37.63
2019-03-18T06:53:10.353Z,31.97
2019-03-18T06:55:40.643Z,33.73
2019-03-18T06:58:11.156Z,29.73
2019-03-18T07:00:41.673Z,26.00
2019-03-18T07:03:12.008Z,21.63
2019-03-18T07:05:42.488Z,23.33
2019-03-18T07:08:13.205Z,31.20
2019-03-18T07:10:43.600Z,38.63
2019-03-18T07:13:14.421Z,32.63
2019-03-18T07:15:45.187Z,37.33
2019-03-18T07:18:18.635Z,38.70
2019-03-18T07:20:47.566Z,45.30
2019-03-18T07:23:18.248Z,34.77
2019-03-18T07:25:48.547Z,43.43
2019-03-18T07:28:19.371Z,50.80
2019-03-18T07:30:49.829Z,40.43
2019-03-18T07:33:21.677Z,49.93
2019-03-18T07:35:52.400Z,48.90
2019-03-18T07:38:22.728Z,49.23
2019-03-18T07:40:53.366Z,56.83
2019-03-18T07:43:23.934Z,52.47
2019-03-18T07:45:54.233Z,52.73
2019-03-18T07:48:30.767Z,44.20
2019-03-18T07:50:57.329Z,47.67
2019-03-18T07:53:27.812Z,54.20
2019-03-18T07:55:58.098Z,35.20
2019-03-18T07:58:28.872Z,51.97
2019-03-18T08:00:59.542Z,40.27
2019-03-18T08:03:30.238Z,31.50
2019-03-18T08:06:01.852Z,28.07
2019-03-18T08:08:32.754Z,29.87
2019-03-18T08:11:03.040Z,42.70
2019-03-18T08:13:33.926Z,43.87
2019-03-18T08:16:04.466Z,29.40
2019-03-18T08:18:43.297Z,35.70
2019-03-18T08:21:07.168Z,40.33
2019-03-18T08:23:37.856Z,37.50
2019-03-18T08:26:09.238Z,33.30
2019-03-18T08:28:39.587Z,34.23
2019-03-18T08:31:10.055Z,45.67
2019-03-18T08:33:40.778Z,29.17
2019-03-18T08:36:11.475Z,42.80
2019-03-18T08:38:41.879Z,36.13
2019-03-18T08:41:12.393Z,26.60
2019-03-18T08:43:43.107Z,36.67
2019-03-18T08:46:13.411Z,25.67
2019-03-18T08:48:55.322Z,27.80
2019-03-18T08:51:16.182Z,26.00
2019-03-18T08:53:47.103Z,26.97
2019-03-18T08:56:17.698Z,27.13
2019-03-18T08:58:48.574Z,21.33
2019-03-18T09:01:18.942Z,22.70
2019-03-18T09:03:49.851Z,22.83
2019-03-18T09:06:21.229Z,25.10
2019-03-18T09:08:51.769Z,30.60
2019-03-18T09:11:22.579Z,44.47
2019-03-18T09:13:53.126Z,27.43
2019-03-18T09:16:23.587Z,19.27
2019-03-18T09:18:54.202Z,21.20
2019-03-18T09:21:24.677Z,29.43
2019-03-18T09:23:55.236Z,37.13
2019-03-18T09:26:25.861Z,28.77
2019-03-18T09:28:56.433Z,39.03
2019-03-18T09:31:26.853Z,28.97
2019-03-18T09:33:57.294Z,22.83
2019-03-18T09:36:27.750Z,21.30
2019-03-18T09:38:58.305Z,26.03
2019-03-18T09:41:28.815Z,29.13
2019-03-18T09:44:01.138Z,45.67
2019-03-18T09:46:31.904Z,32.13
2019-03-18T09:49:02.669Z,26.23
2019-03-18T09:51:33.188Z,19.10
2019-03-18T09:54:03.941Z,28.33
2019-03-18T09:56:34.553Z,19.63
2019-03-18T09:59:04.964Z,18.87
2019-03-18T10:01:35.372Z,23.00
2019-03-18T10:04:05.866Z,33.43
2019-03-18T10:06:36.201Z,22.13
2019-03-18T10:09:08.662Z,26.97
2019-03-18T10:11:39.116Z,24.10
2019-03-18T10:14:09.832Z,25.27
2019-03-18T10:16:40.588Z,22.73
2019-03-18T10:19:10.885Z,28.37
2019-03-18T10:21:41.461Z,33.80
2019-03-18T10:24:12.148Z,25.70
2019-03-18T10:26:42.881Z,17.93
2019-03-18T10:29:13.189Z,19.70
2019-03-18T10:31:43.935Z,16.60
2019-03-18T10:34:14.262Z,28.00
2019-03-18T10:36:44.976Z,24.18
2019-03-18T10:39:15.371Z,24.92
2019-03-18T10:41:45.804Z,19.87
2019-03-18T10:44:16.179Z,33.92
2019-03-18T10:46:46.589Z,23.77
2019-03-18T10:49:17.007Z,15.98
2019-03-18T10:51:48.389Z,23.35
2019-03-18T10:54:30.467Z,24.18
2019-03-18T10:56:50.945Z,37.28
2019-03-18T10:59:21.768Z,17.95
2019-03-18T11:01:52.537Z,30.57
2019-03-18T11:04:22.824Z,28.80
2019-03-18T11:06:53.543Z,19.52
2019-03-18T11:09:24.234Z,40.43
2019-03-18T11:11:54.574Z,28.85
2019-03-18T11:14:25.114Z,17.65
2019-03-18T11:16:55.417Z,11.65
2019-03-18T11:19:26.079Z,27.85
2019-03-18T11:21:56.553Z,9.85
2019-03-18T11:24:27.036Z,16.23
2019-03-18T11:26:57.769Z,23.87
2019-03-18T11:29:28.374Z,19.23
2019-03-18T11:31:58.697Z,20.55
2019-03-18T11:34:29.452Z,19.32
2019-03-18T11:37:00.272Z,15.25
2019-03-18T11:39:30.629Z,15.80
2019-03-18T11:42:01.266Z,20.97
2019-03-18T11:44:31.844Z,20.62
2019-03-18T11:47:02.283Z,28.20
2019-03-18T11:49:39.630Z,16.80
2019-03-18T11:52:05.482Z,16.35
2019-03-18T11:54:36.253Z,16.40
2019-03-18T11:57:07.244Z,11.05
2019-03-18T11:59:37.535Z,19.87
2019-03-18T12:02:08.291Z,18.65
2019-03-18T12:04:38.999Z,13.55
2019-03-18T12:07:09.379Z,12.07
2019-03-18T12:09:39.695Z,13.08
2019-03-18T12:12:13.224Z,24.75
2019-03-18T12:14:42.683Z,16.32
2019-03-18T12:17:12.988Z,14.05
2019-03-18T12:19:43.375Z,15.83
2019-03-18T12:22:14.092Z,12.82
2019-03-18T12:24:44.385Z,23.25
2019-03-18T12:27:14.971Z,9.30
2019-03-18T12:29:45.611Z,22.35
2019-03-18T12:32:15.913Z,16.40
2019-03-18T12:34:46.598Z,7.42
2019-03-18T12:37:17.295Z,8.03
2019-03-18T12:39:47.794Z,10.10
2019-03-18T12:42:19.442Z,9.13
2019-03-18T12:44:50.162Z,15.75
2019-03-18T12:47:20.494Z,7.20
2019-03-18T12:49:50.947Z,15.53
2019-03-18T12:52:21.294Z,11.18
2019-03-18T12:54:52.127Z,11.18
2019-03-18T12:57:22.770Z,11.88
2019-03-18T12:59:53.262Z,10.25
2019-03-18T13:02:23.717Z,15.98
2019-03-18T13:04:54.400Z,21.10
2019-03-18T13:07:24.706Z,8.60
2019-03-18T13:09:55.034Z,7.97
2019-03-18T13:12:25.649Z,7.67
2019-03-18T13:14:56.239Z,11.15
2019-03-18T13:17:26.660Z,9.75
2019-03-18T13:19:57.228Z,5.35
2019-03-18T13:22:27.596Z,7.92
2019-03-18T13:24:58.377Z,9.70
2019-03-18T13:27:28.664Z,6.97
2019-03-18T13:29:59.038Z,9.80
2019-03-18T13:32:29.726Z,7.30
2019-03-18T13:35:00.032Z,7.90
2019-03-18T13:37:30.610Z,7.62
2019-03-18T13:40:01.265Z,9.48
2019-03-18T13:42:31.774Z,6.05
2019-03-18T13:45:02.185Z,3.77
2019-03-18T13:47:33.073Z,2.40
2019-03-18T13:50:03.785Z,4.03
2019-03-18T13:52:34.422Z,4.95
2019-03-18T13:55:04.781Z,7.20
2019-03-18T13:57:35.074Z,3.60
2019-03-18T14:00:07.275Z,5.40
2019-03-18T14:02:37.830Z,8.60
2019-03-18T14:05:08.790Z,7.72
2019-03-18T14:07:39.653Z,3.33
2019-03-18T14:10:11.921Z,7.95
2019-03-18T14:12:42.470Z,7.03
2019-03-18T14:15:14.627Z,2.55
2019-03-18T14:17:46.462Z,4.95
2019-03-18T14:20:17.834Z,13.58
2019-03-18T14:22:48.419Z,3.47
2019-03-18T14:25:18.727Z,2.30
2019-03-18T14:27:49.577Z,6.70
2019-03-18T14:30:20.368Z,8.20
2019-03-18T14:32:50.772Z,5.25
2019-03-18T14:35:22.063Z,5.30
2019-03-18T14:37:53.132Z,9.30
2019-03-18T14:40:24.762Z,3.77
2019-03-18T14:42:55.309Z,3.05
2019-03-18T14:45:26.217Z,2.95
2019-03-18T14:47:56.632Z,4.45
2019-03-18T14:50:26.927Z,5.42
2019-03-18T14:52:57.783Z,5.55
2019-03-18T14:55:28.088Z,5.53
2019-03-18T14:57:59.056Z,3.87
2019-03-18T15:00:29.355Z,6.28
2019-03-18T15:02:59.831Z,4.62
2019-03-18T15:05:30.470Z,6.00
2019-03-18T15:08:00.806Z,6.78
2019-03-18T15:10:31.096Z,2.47
2019-03-18T15:13:01.784Z,7.25
2019-03-18T15:15:32.103Z,2.33
2019-03-18T15:18:02.426Z,4.72
2019-03-18T15:20:32.812Z,4.33
2019-03-18T15:23:03.322Z,9.13
2019-03-18T15:25:33.867Z,4.87
2019-03-18T15:28:04.862Z,3.83
2019-03-18T15:30:35.164Z,6.90
2019-03-18T15:33:05.996Z,2.90
2019-03-18T15:35:36.269Z,6.30
2019-03-18T15:38:06.604Z,5.33
2019-03-18T15:40:37.316Z,3.47
2019-03-18T15:43:07.862Z,3.70
2019-03-18T15:45:38.268Z,3.00
2019-03-18T15:48:09.045Z,5.17
2019-03-18T15:50:46.462Z,4.03
2019-03-18T15:53:20.786Z,5.43
2019-03-18T15:55:51.626Z,5.90
2019-03-18T15:58:22.276Z,6.67
2019-03-18T16:00:52.578Z,4.13
2019-03-18T16:03:23.060Z,5.23
2019-03-18T16:05:53.364Z,15.17
2019-03-18T16:08:24.278Z,8.53
2019-03-18T16:10:55.074Z,6.63
2019-03-18T16:13:25.366Z,6.30
2019-03-18T16:15:55.737Z,4.93
2019-03-18T16:18:26.118Z,4.57
2019-03-18T16:20:56.483Z,8.27
2019-03-18T16:23:27.043Z,12.87
2019-03-18T16:25:57.729Z,4.53
2019-03-18T16:28:28.078Z,9.43
2019-03-18T16:30:58.786Z,6.57
2019-03-18T16:33:29.525Z,11.20
2019-03-18T16:35:59.831Z,6.50
2019-03-18T16:38:30.178Z,7.93
2019-03-18T16:41:00.660Z,4.97
2019-03-18T16:43:31.177Z,5.40
2019-03-18T16:46:01.471Z,10.10
2019-03-18T16:48:32.209Z,6.93
2019-03-18T16:51:02.740Z,5.07
2019-03-18T16:53:33.166Z,3.03
2019-03-18T16:56:03.933Z,7.00
2019-03-18T16:58:34.448Z,3.33
2019-03-18T17:01:04.878Z,7.37
2019-03-18T17:03:35.399Z,7.40
2019-03-18T17:06:05.787Z,5.60
2019-03-18T17:08:36.446Z,11.50
2019-03-18T17:11:07.124Z,6.17
2019-03-18T17:13:37.495Z,9.50
2019-03-18T17:16:08.191Z,5.67
2019-03-18T17:18:38.578Z,5.87
2019-03-18T17:21:08.903Z,6.90
2019-03-18T17:23:39.429Z,4.80
2019-03-18T17:26:10.101Z,4.20
2019-03-18T17:28:40.448Z,4.00
2019-03-18T17:31:11.008Z,6.73
2019-03-18T17:33:41.650Z,9.73
2019-03-18T17:36:11.939Z,5.93
2019-03-18T17:38:42.691Z,3.70
2019-03-18T17:41:12.971Z,8.27
2019-03-18T17:43:43.645Z,4.10
2019-03-18T17:46:14.012Z,2.70
2019-03-18T17:48:44.320Z,4.33
2019-03-18T17:51:14.610Z,6.10
2019-03-18T17:53:45.324Z,4.27
2019-03-18T17:56:15.734Z,3.17
2019-03-18T17:58:46.095Z,7.83
2019-03-18T18:01:16.658Z,5.43
2019-03-18T18:03:47.088Z,4.70
2019-03-18T18:06:17.480Z,2.87
2019-03-18T18:08:48.982Z,4.30
2019-03-18T18:11:19.478Z,5.70
2019-03-18T18:13:50.188Z,5.03
2019-03-18T18:16:20.491Z,5.67
2019-03-18T18:18:50.936Z,9.53
2019-03-18T18:21:21.620Z,3.93
2019-03-18T18:23:52.096Z,7.47
2019-03-18T18:26:22.380Z,11.97
2019-03-18T18:28:53.204Z,9.60
2019-03-18T18:31:23.945Z,19.17
2019-03-18T18:33:54.273Z,15.23
2019-03-18T18:36:25.432Z,11.67
2019-03-18T18:38:56.164Z,17.30
2019-03-18T18:41:26.569Z,20.37
2019-03-18T18:43:57.102Z,27.67
2019-03-18T18:46:27.411Z,20.63
2019-03-18T18:48:58.103Z,24.23
2019-03-18T18:51:28.802Z,21.63
2019-03-18T18:53:59.129Z,23.80
2019-03-18T18:56:29.866Z,30.10
2019-03-18T18:59:00.343Z,32.17
2019-03-18T19:01:30.647Z,30.80
2019-03-18T19:04:01.103Z,38.67
2019-03-18T19:06:32.602Z,33.00
2019-03-18T19:09:04.118Z,26.00
2019-03-18T19:11:34.487Z,36.53
2019-03-18T19:14:05.330Z,18.97
2019-03-18T19:16:36.695Z,24.97
2019-03-18T19:19:07.160Z,24.33
2019-03-18T19:21:37.503Z,34.33
2019-03-18T19:24:10.709Z,30.50
2019-03-18T19:26:40.528Z,30.30
2019-03-18T19:29:11.235Z,26.03
2019-03-18T19:31:41.624Z,30.10
2019-03-18T19:34:12.454Z,29.77
2019-03-18T19:36:42.818Z,36.53
2019-03-18T19:39:13.172Z,25.87
2019-03-18T19:41:43.815Z,31.17
2019-03-18T19:44:14.254Z,37.07
2019-03-18T19:46:44.972Z,44.77
2019-03-18T19:49:15.323Z,44.40
2019-03-18T19:51:45.640Z,23.00
2019-03-18T19:54:16.294Z,19.50
2019-03-18T19:56:46.631Z,21.43
2019-03-18T19:59:16.967Z,20.13
2019-03-18T20:01:47.433Z,18.20
2019-03-18T20:04:18.099Z,21.70
2019-03-18T20:06:48.391Z,26.97
2019-03-18T20:09:20.290Z,29.77
2019-03-18T20:11:50.990Z,26.50
2019-03-18T20:14:21.319Z,35.17
2019-03-18T20:16:51.759Z,31.17
2019-03-18T20:19:22.042Z,14.87
2019-03-18T20:21:52.640Z,17.43
2019-03-18T20:24:23.185Z,14.67
2019-03-18T20:26:53.653Z,12.20
2019-03-18T20:29:24.387Z,21.37
2019-03-18T20:31:55.160Z,25.93
2019-03-18T20:34:25.526Z,26.00
2019-03-18T20:36:56.138Z,240.90
2019-03-18T20:39:26.722Z,20.30
2019-03-18T20:41:57.188Z,19.43
2019-03-18T20:44:27.704Z,24.23
2019-03-18T20:46:58.154Z,29.53
2019-03-18T20:49:28.516Z,25.63
2019-03-18T20:51:58.952Z,13.73
2019-03-18T20:54:29.710Z,13.77
2019-03-18T20:57:00.181Z,12.63
2019-03-18T20:59:30.548Z,14.67
2019-03-18T21:02:02.257Z,19.37
2019-03-18T21:04:32.931Z,13.17
2019-03-18T21:07:03.309Z,16.23
2019-03-18T21:09:33.996Z,15.13
2019-03-18T21:12:04.764Z,18.87
2019-03-18T21:14:35.137Z,15.67
2019-03-18T21:17:05.514Z,16.57
2019-03-18T21:19:36.051Z,16.40
2019-03-18T21:22:06.404Z,20.83
2019-03-18T21:24:37.051Z,13.00
2019-03-18T21:27:07.448Z,20.60
2019-03-18T21:29:38.339Z,19.97
2019-03-18T21:32:09.063Z,17.70
2019-03-18T21:34:39.680Z,8.90
2019-03-18T21:37:10.231Z,11.90
2019-03-18T21:39:40.960Z,14.60
2019-03-18T21:42:11.340Z,14.93
2019-03-18T21:44:41.877Z,12.57
2019-03-18T21:47:12.246Z,20.30
2019-03-18T21:49:42.553Z,18.77
2019-03-18T21:52:13.102Z,13.10
2019-03-18T21:54:43.634Z,10.77
2019-03-18T21:57:14.301Z,5.00
2019-03-18T21:59:45.007Z,5.63
2019-03-18T22:02:15.303Z,7.70
2019-03-18T22:04:45.848Z,6.17
2019-03-18T22:07:16.487Z,7.17
2019-03-18T22:09:47.002Z,6.50
2019-03-18T22:12:17.307Z,7.43
2019-03-18T22:14:48.016Z,9.73
2019-03-18T22:17:18.299Z,7.60
2019-03-18T22:19:48.625Z,4.23
2019-03-18T22:22:19.257Z,6.33
2019-03-18T22:24:50.182Z,7.60
2019-03-18T22:27:21.032Z,6.27
2019-03-18T22:29:51.397Z,7.00
2019-03-18T22:32:21.689Z,3.77
2019-03-18T22:34:52.465Z,4.50
2019-03-18T22:37:22.828Z,4.37
2019-03-18T22:39:53.171Z,6.23
2019-03-18T22:42:23.833Z,4.47
2019-03-18T22:44:54.182Z,5.50
2019-03-18T22:47:24.463Z,11.60
2019-03-18T22:49:54.877Z,8.53
2019-03-18T22:52:25.501Z,5.70
2019-03-18T22:54:56.374Z,5.97
2019-03-18T22:57:27.091Z,5.80
2019-03-18T22:59:58.544Z,6.53
2019-03-18T23:02:29.275Z,7.20
2019-03-18T23:04:59.947Z,7.57
2019-03-18T23:07:30.242Z,6.17
2019-03-18T23:10:00.912Z,3.90
2019-03-18T23:12:31.698Z,4.73
2019-03-18T23:15:03.702Z,6.40
2019-03-18T23:17:34.101Z,6.47
2019-03-18T23:20:04.969Z,6.10
2019-03-18T23:22:35.341Z,4.37
2019-03-18T23:25:07.883Z,4.13
2019-03-18T23:27:39.801Z,7.03
2019-03-18T23:30:10.425Z,5.73
2019-03-18T23:32:41.077Z,4.63
2019-03-18T23:35:11.473Z,5.87
2019-03-18T23:37:42.169Z,8.37
2019-03-18T23:40:12.967Z,6.67
2019-03-18T23:42:43.365Z,6.67
2019-03-18T23:45:14.133Z,8.77
2019-03-18T23:47:44.546Z,9.30
2019-03-18T23:50:14.857Z,5.63
2019-03-18T23:52:45.472Z,8.40
2019-03-18T23:55:19.286Z,12.20
2019-03-18T23:57:48.188Z,8.00
